Terminal Aerodrome Forecast
Issued by NWS

Home | Current Version | Previous Version | Text Only | Print | Product List | Glossary On
Versions: 1 2 3 4 5 6 7 8 9 10 11 12 13 14 15 16 17 18 19 20
000
FTUS41 KGYX 271720
TAFPSM
TAF
KPSM 271720Z 2718/2818 28008KT P6SM BKN050 PROB30 2803/2809 P6SM
      -SN OVC025
     FM280900 31010KT P6SM OVC050
      TEMPO 2809/2813 1 1/2SM -SHSN BR BKN025 OVC050=

USA.gov is the U.S. government's official web portal to all federal, state and local government web resources and services.